sensor_id;sensor_type;location;lat;lon;timestamp;P1;durP1;ratioP1;P2;durP2;ratioP2
49217;SDS011;35045;51.194;7.268;2023-03-20T00:00:46;44.42;;;26.02;;
49217;SDS011;35045;51.194;7.268;2023-03-20T00:03:14;34.00;;;25.73;;
49217;SDS011;35045;51.194;7.268;2023-03-20T00:05:41;39.55;;;26.65;;
49217;SDS011;35045;51.194;7.268;2023-03-20T00:08:07;33.10;;;22.67;;
49217;SDS011;35045;51.194;7.268;2023-03-20T00:10:35;32.25;;;22.63;;
49217;SDS011;35045;51.194;7.268;2023-03-20T00:13:04;29.52;;;21.35;;
49217;SDS011;35045;51.194;7.268;2023-03-20T00:15:34;26.50;;;18.27;;
49217;SDS011;35045;51.194;7.268;2023-03-20T00:18:03;26.98;;;16.33;;
49217;SDS011;35045;51.194;7.268;2023-03-20T00:20:39;26.92;;;17.27;;
49217;SDS011;35045;51.194;7.268;2023-03-20T00:23:05;20.67;;;14.98;;
49217;SDS011;35045;51.194;7.268;2023-03-20T00:25:32;22.27;;;14.27;;
49217;SDS011;35045;51.194;7.268;2023-03-20T00:27:58;25.42;;;14.77;;
49217;SDS011;35045;51.194;7.268;2023-03-20T00:30:26;20.30;;;13.45;;
49217;SDS011;35045;51.194;7.268;2023-03-20T00:32:55;20.85;;;13.75;;
49217;SDS011;35045;51.194;7.268;2023-03-20T00:35:23;20.95;;;13.48;;
49217;SDS011;35045;51.194;7.268;2023-03-20T00:37:52;19.50;;;13.77;;
49217;SDS011;35045;51.194;7.268;2023-03-20T00:40:19;19.80;;;13.23;;
49217;SDS011;35045;51.194;7.268;2023-03-20T00:42:48;19.08;;;12.68;;
49217;SDS011;35045;51.194;7.268;2023-03-20T00:45:19;21.63;;;13.15;;
49217;SDS011;35045;51.194;7.268;2023-03-20T00:47:46;17.85;;;12.98;;
49217;SDS011;35045;51.194;7.268;2023-03-20T00:50:17;18.73;;;11.90;;
49217;SDS011;35045;51.194;7.268;2023-03-20T00:52:43;16.63;;;11.45;;
49217;SDS011;35045;51.194;7.268;2023-03-20T00:55:10;19.70;;;13.43;;
49217;SDS011;35045;51.194;7.268;2023-03-20T00:57:40;19.08;;;12.98;;
49217;SDS011;35045;51.194;7.268;2023-03-20T01:03:12;18.90;;;12.60;;
49217;SDS011;35045;51.194;7.268;2023-03-20T01:05:44;19.23;;;12.98;;
49217;SDS011;35045;51.194;7.268;2023-03-20T01:08:12;22.13;;;13.68;;
49217;SDS011;35045;51.194;7.268;2023-03-20T01:10:46;25.15;;;15.18;;
49217;SDS011;35045;51.194;7.268;2023-03-20T01:15:46;24.33;;;14.73;;
49217;SDS011;35045;51.194;7.268;2023-03-20T01:18:14;24.38;;;15.45;;
49217;SDS011;35045;51.194;7.268;2023-03-20T01:20:41;22.60;;;14.55;;
49217;SDS011;35045;51.194;7.268;2023-03-20T01:23:08;25.45;;;15.23;;
49217;SDS011;35045;51.194;7.268;2023-03-20T01:25:35;21.88;;;14.25;;
49217;SDS011;35045;51.194;7.268;2023-03-20T01:28:02;26.10;;;15.82;;
49217;SDS011;35045;51.194;7.268;2023-03-20T01:30:36;23.80;;;14.57;;
49217;SDS011;35045;51.194;7.268;2023-03-20T01:33:05;24.65;;;15.43;;
49217;SDS011;35045;51.194;7.268;2023-03-20T01:35:38;25.73;;;15.25;;
49217;SDS011;35045;51.194;7.268;2023-03-20T01:38:11;25.27;;;15.07;;
49217;SDS011;35045;51.194;7.268;2023-03-20T01:43:17;22.85;;;16.38;;
49217;SDS011;35045;51.194;7.268;2023-03-20T01:46:28;22.42;;;14.50;;
49217;SDS011;35045;51.194;7.268;2023-03-20T01:51:16;22.38;;;13.77;;
49217;SDS011;35045;51.194;7.268;2023-03-20T01:53:46;22.75;;;13.82;;
49217;SDS011;35045;51.194;7.268;2023-03-20T01:56:15;25.10;;;14.85;;
49217;SDS011;35045;51.194;7.268;2023-03-20T01:58:51;22.08;;;14.27;;
49217;SDS011;35045;51.194;7.268;2023-03-20T02:01:23;23.58;;;13.52;;
49217;SDS011;35045;51.194;7.268;2023-03-20T02:03:50;21.25;;;14.50;;
49217;SDS011;35045;51.194;7.268;2023-03-20T02:06:17;21.55;;;13.10;;
49217;SDS011;35045;51.194;7.268;2023-03-20T02:08:47;19.55;;;12.27;;
49217;SDS011;35045;51.194;7.268;2023-03-20T02:11:15;22.05;;;12.38;;
49217;SDS011;35045;51.194;7.268;2023-03-20T02:13:44;19.88;;;12.63;;
49217;SDS011;35045;51.194;7.268;2023-03-20T02:16:12;20.23;;;12.90;;
49217;SDS011;35045;51.194;7.268;2023-03-20T02:18:40;19.75;;;13.02;;
49217;SDS011;35045;51.194;7.268;2023-03-20T02:26:50;21.73;;;13.18;;
49217;SDS011;35045;51.194;7.268;2023-03-20T02:29:35;21.65;;;12.32;;
49217;SDS011;35045;51.194;7.268;2023-03-20T02:40:57;19.45;;;11.88;;
49217;SDS011;35045;51.194;7.268;2023-03-20T02:52:19;19.77;;;12.77;;
49217;SDS011;35045;51.194;7.268;2023-03-20T02:55:14;17.98;;;12.27;;
49217;SDS011;35045;51.194;7.268;2023-03-20T02:57:56;18.55;;;12.57;;
49217;SDS011;35045;51.194;7.268;2023-03-20T03:00:37;21.80;;;13.63;;
49217;SDS011;35045;51.194;7.268;2023-03-20T03:03:13;20.88;;;13.10;;
49217;SDS011;35045;51.194;7.268;2023-03-20T03:06:29;19.48;;;13.00;;
49217;SDS011;35045;51.194;7.268;2023-03-20T03:09:10;21.20;;;13.77;;
49217;SDS011;35045;51.194;7.268;2023-03-20T03:11:44;20.27;;;12.93;;
49217;SDS011;35045;51.194;7.268;2023-03-20T03:14:17;19.70;;;12.52;;
49217;SDS011;35045;51.194;7.268;2023-03-20T03:16:48;20.95;;;13.48;;
49217;SDS011;35045;51.194;7.268;2023-03-20T03:19:17;20.95;;;12.98;;
49217;SDS011;35045;51.194;7.268;2023-03-20T03:21:47;21.65;;;13.00;;
49217;SDS011;35045;51.194;7.268;2023-03-20T03:27:06;19.75;;;12.82;;
49217;SDS011;35045;51.194;7.268;2023-03-20T03:30:01;20.70;;;12.35;;
49217;SDS011;35045;51.194;7.268;2023-03-20T03:32:32;21.20;;;12.77;;
49217;SDS011;35045;51.194;7.268;2023-03-20T03:35:01;20.52;;;13.50;;
49217;SDS011;35045;51.194;7.268;2023-03-20T03:37:37;20.52;;;13.43;;
49217;SDS011;35045;51.194;7.268;2023-03-20T03:40:29;20.05;;;12.73;;
49217;SDS011;35045;51.194;7.268;2023-03-20T03:43:27;20.52;;;12.98;;
49217;SDS011;35045;51.194;7.268;2023-03-20T03:45:58;19.00;;;12.50;;
49217;SDS011;35045;51.194;7.268;2023-03-20T03:48:33;19.48;;;13.35;;
49217;SDS011;35045;51.194;7.268;2023-03-20T03:51:13;20.52;;;12.65;;
49217;SDS011;35045;51.194;7.268;2023-03-20T03:53:48;20.75;;;12.95;;
49217;SDS011;35045;51.194;7.268;2023-03-20T03:56:25;19.50;;;11.85;;
49217;SDS011;35045;51.194;7.268;2023-03-20T03:58:55;22.73;;;13.98;;
49217;SDS011;35045;51.194;7.268;2023-03-20T04:01:29;21.10;;;13.10;;
49217;SDS011;35045;51.194;7.268;2023-03-20T04:03:59;17.45;;;11.65;;
49217;SDS011;35045;51.194;7.268;2023-03-20T04:06:29;21.92;;;12.65;;
49217;SDS011;35045;51.194;7.268;2023-03-20T04:08:56;19.52;;;12.35;;
49217;SDS011;35045;51.194;7.268;2023-03-20T04:11:24;18.77;;;12.65;;
49217;SDS011;35045;51.194;7.268;2023-03-20T04:13:51;19.92;;;12.30;;
49217;SDS011;35045;51.194;7.268;2023-03-20T04:16:18;21.95;;;14.23;;
49217;SDS011;35045;51.194;7.268;2023-03-20T04:18:45;20.17;;;12.10;;
49217;SDS011;35045;51.194;7.268;2023-03-20T04:21:12;20.30;;;12.70;;
49217;SDS011;35045;51.194;7.268;2023-03-20T04:23:40;20.23;;;12.73;;
49217;SDS011;35045;51.194;7.268;2023-03-20T04:26:07;19.50;;;12.48;;
49217;SDS011;35045;51.194;7.268;2023-03-20T04:28:33;20.38;;;12.00;;
49217;SDS011;35045;51.194;7.268;2023-03-20T04:31:00;19.50;;;12.55;;
49217;SDS011;35045;51.194;7.268;2023-03-20T04:33:27;17.88;;;11.32;;
49217;SDS011;35045;51.194;7.268;2023-03-20T04:35:53;21.23;;;13.27;;
49217;SDS011;35045;51.194;7.268;2023-03-20T04:38:20;19.73;;;13.25;;
49217;SDS011;35045;51.194;7.268;2023-03-20T04:40:48;20.83;;;12.63;;
49217;SDS011;35045;51.194;7.268;2023-03-20T04:43:14;24.40;;;14.07;;
49217;SDS011;35045;51.194;7.268;2023-03-20T04:45:40;21.73;;;12.75;;
49217;SDS011;35045;51.194;7.268;2023-03-20T04:48:07;22.27;;;14.10;;
49217;SDS011;35045;51.194;7.268;2023-03-20T04:50:33;21.83;;;14.00;;
49217;SDS011;35045;51.194;7.268;2023-03-20T04:53:00;20.50;;;12.40;;
49217;SDS011;35045;51.194;7.268;2023-03-20T04:55:26;22.67;;;13.88;;
49217;SDS011;35045;51.194;7.268;2023-03-20T04:57:52;22.02;;;14.30;;
49217;SDS011;35045;51.194;7.268;2023-03-20T05:00:18;22.70;;;14.25;;
49217;SDS011;35045;51.194;7.268;2023-03-20T05:02:45;20.77;;;13.57;;
49217;SDS011;35045;51.194;7.268;2023-03-20T05:05:11;22.65;;;14.25;;
49217;SDS011;35045;51.194;7.268;2023-03-20T05:07:37;22.45;;;14.88;;
49217;SDS011;35045;51.194;7.268;2023-03-20T05:10:04;22.10;;;13.55;;
49217;SDS011;35045;51.194;7.268;2023-03-20T05:12:30;21.33;;;13.50;;
49217;SDS011;35045;51.194;7.268;2023-03-20T05:14:56;20.67;;;13.88;;
49217;SDS011;35045;51.194;7.268;2023-03-20T05:17:23;21.17;;;13.32;;
49217;SDS011;35045;51.194;7.268;2023-03-20T05:19:49;21.63;;;13.93;;
49217;SDS011;35045;51.194;7.268;2023-03-20T05:22:16;22.45;;;13.70;;
49217;SDS011;35045;51.194;7.268;2023-03-20T05:24:42;21.50;;;14.65;;
49217;SDS011;35045;51.194;7.268;2023-03-20T05:27:09;23.30;;;14.82;;
49217;SDS011;35045;51.194;7.268;2023-03-20T05:29:35;20.50;;;13.65;;
49217;SDS011;35045;51.194;7.268;2023-03-20T05:32:01;22.02;;;13.88;;
49217;SDS011;35045;51.194;7.268;2023-03-20T05:34:27;24.58;;;15.48;;
49217;SDS011;35045;51.194;7.268;2023-03-20T05:36:53;23.83;;;14.20;;
49217;SDS011;35045;51.194;7.268;2023-03-20T05:39:20;22.65;;;14.27;;
49217;SDS011;35045;51.194;7.268;2023-03-20T05:41:46;21.52;;;13.85;;
49217;SDS011;35045;51.194;7.268;2023-03-20T05:44:13;19.83;;;13.57;;
49217;SDS011;35045;51.194;7.268;2023-03-20T05:46:39;22.08;;;13.38;;
49217;SDS011;35045;51.194;7.268;2023-03-20T05:49:05;21.38;;;13.18;;
49217;SDS011;35045;51.194;7.268;2023-03-20T05:51:31;21.15;;;12.93;;
49217;SDS011;35045;51.194;7.268;2023-03-20T05:53:58;18.90;;;11.23;;
49217;SDS011;35045;51.194;7.268;2023-03-20T05:56:24;20.13;;;11.40;;
49217;SDS011;35045;51.194;7.268;2023-03-20T05:58:50;18.45;;;12.10;;
49217;SDS011;35045;51.194;7.268;2023-03-20T06:01:17;18.20;;;12.13;;
49217;SDS011;35045;51.194;7.268;2023-03-20T06:03:46;18.90;;;12.10;;
49217;SDS011;35045;51.194;7.268;2023-03-20T06:06:13;15.52;;;10.52;;
49217;SDS011;35045;51.194;7.268;2023-03-20T06:08:40;15.82;;;11.15;;
49217;SDS011;35045;51.194;7.268;2023-03-20T06:11:07;16.77;;;11.20;;
49217;SDS011;35045;51.194;7.268;2023-03-20T06:13:33;19.73;;;11.63;;
49217;SDS011;35045;51.194;7.268;2023-03-20T06:16:00;16.92;;;11.43;;
49217;SDS011;35045;51.194;7.268;2023-03-20T06:18:26;18.95;;;12.07;;
49217;SDS011;35045;51.194;7.268;2023-03-20T06:20:53;17.08;;;12.23;;
49217;SDS011;35045;51.194;7.268;2023-03-20T06:23:20;19.27;;;12.23;;
49217;SDS011;35045;51.194;7.268;2023-03-20T06:25:46;20.10;;;12.70;;
49217;SDS011;35045;51.194;7.268;2023-03-20T06:28:12;20.73;;;12.80;;
49217;SDS011;35045;51.194;7.268;2023-03-20T06:30:39;21.02;;;13.13;;
49217;SDS011;35045;51.194;7.268;2023-03-20T06:33:05;23.65;;;14.57;;
49217;SDS011;35045;51.194;7.268;2023-03-20T06:35:32;21.92;;;14.30;;
49217;SDS011;35045;51.194;7.268;2023-03-20T06:37:58;22.23;;;14.77;;
49217;SDS011;35045;51.194;7.268;2023-03-20T06:40:25;23.98;;;14.75;;
49217;SDS011;35045;51.194;7.268;2023-03-20T06:42:54;20.77;;;12.73;;
49217;SDS011;35045;51.194;7.268;2023-03-20T06:45:21;21.48;;;13.93;;
49217;SDS011;35045;51.194;7.268;2023-03-20T06:47:47;21.73;;;14.60;;
49217;SDS011;35045;51.194;7.268;2023-03-20T06:50:14;25.08;;;15.18;;
49217;SDS011;35045;51.194;7.268;2023-03-20T06:52:40;22.67;;;14.95;;
49217;SDS011;35045;51.194;7.268;2023-03-20T06:55:07;24.13;;;15.20;;
49217;SDS011;35045;51.194;7.268;2023-03-20T06:57:33;24.52;;;15.00;;
49217;SDS011;35045;51.194;7.268;2023-03-20T07:00:00;24.30;;;14.15;;
49217;SDS011;35045;51.194;7.268;2023-03-20T07:02:26;21.30;;;14.48;;
49217;SDS011;35045;51.194;7.268;2023-03-20T07:04:52;22.90;;;13.88;;
49217;SDS011;35045;51.194;7.268;2023-03-20T07:07:19;22.80;;;13.32;;
49217;SDS011;35045;51.194;7.268;2023-03-20T07:09:45;20.10;;;13.70;;
49217;SDS011;35045;51.194;7.268;2023-03-20T07:12:12;19.27;;;12.90;;
49217;SDS011;35045;51.194;7.268;2023-03-20T07:14:40;18.52;;;12.52;;
49217;SDS011;35045;51.194;7.268;2023-03-20T07:17:10;18.17;;;11.52;;
49217;SDS011;35045;51.194;7.268;2023-03-20T07:19:37;18.48;;;10.52;;
49217;SDS011;35045;51.194;7.268;2023-03-20T07:22:05;14.50;;;9.60;;
49217;SDS011;35045;51.194;7.268;2023-03-20T07:24:33;17.13;;;9.05;;
49217;SDS011;35045;51.194;7.268;2023-03-20T07:26:59;14.82;;;9.02;;
49217;SDS011;35045;51.194;7.268;2023-03-20T07:29:26;15.48;;;9.32;;
49217;SDS011;35045;51.194;7.268;2023-03-20T07:31:52;17.25;;;10.20;;
49217;SDS011;35045;51.194;7.268;2023-03-20T07:34:18;17.77;;;10.60;;
49217;SDS011;35045;51.194;7.268;2023-03-20T07:36:44;15.93;;;9.93;;
49217;SDS011;35045;51.194;7.268;2023-03-20T07:39:11;19.05;;;11.13;;
49217;SDS011;35045;51.194;7.268;2023-03-20T07:41:38;15.65;;;10.20;;
49217;SDS011;35045;51.194;7.268;2023-03-20T07:44:04;16.50;;;10.13;;
49217;SDS011;35045;51.194;7.268;2023-03-20T07:46:32;14.18;;;9.02;;
49217;SDS011;35045;51.194;7.268;2023-03-20T07:48:59;16.98;;;9.75;;
49217;SDS011;35045;51.194;7.268;2023-03-20T07:51:25;15.27;;;9.60;;
49217;SDS011;35045;51.194;7.268;2023-03-20T07:53:51;14.63;;;8.25;;
49217;SDS011;35045;51.194;7.268;2023-03-20T07:56:17;16.73;;;9.63;;
49217;SDS011;35045;51.194;7.268;2023-03-20T07:58:43;13.85;;;8.43;;
49217;SDS011;35045;51.194;7.268;2023-03-20T08:01:10;15.82;;;8.55;;
49217;SDS011;35045;51.194;7.268;2023-03-20T08:03:36;15.25;;;8.02;;
49217;SDS011;35045;51.194;7.268;2023-03-20T08:06:03;15.45;;;8.52;;
49217;SDS011;35045;51.194;7.268;2023-03-20T08:08:32;13.50;;;7.70;;
49217;SDS011;35045;51.194;7.268;2023-03-20T08:10:58;16.65;;;9.05;;
49217;SDS011;35045;51.194;7.268;2023-03-20T08:13:24;12.95;;;7.65;;
49217;SDS011;35045;51.194;7.268;2023-03-20T08:15:51;12.43;;;6.55;;
49217;SDS011;35045;51.194;7.268;2023-03-20T08:18:17;15.43;;;7.18;;
49217;SDS011;35045;51.194;7.268;2023-03-20T08:20:44;15.55;;;8.32;;
49217;SDS011;35045;51.194;7.268;2023-03-20T08:23:11;13.15;;;7.15;;
49217;SDS011;35045;51.194;7.268;2023-03-20T08:25:37;12.90;;;6.78;;
49217;SDS011;35045;51.194;7.268;2023-03-20T08:28:03;14.75;;;7.28;;
49217;SDS011;35045;51.194;7.268;2023-03-20T08:30:29;15.10;;;7.40;;
49217;SDS011;35045;51.194;7.268;2023-03-20T08:32:56;11.55;;;6.65;;
49217;SDS011;35045;51.194;7.268;2023-03-20T08:35:23;12.40;;;7.22;;
49217;SDS011;35045;51.194;7.268;2023-03-20T08:37:57;16.45;;;6.95;;
49217;SDS011;35045;51.194;7.268;2023-03-20T08:40:23;12.60;;;6.90;;
49217;SDS011;35045;51.194;7.268;2023-03-20T08:42:50;15.60;;;7.00;;
49217;SDS011;35045;51.194;7.268;2023-03-20T08:45:16;13.88;;;7.30;;
49217;SDS011;35045;51.194;7.268;2023-03-20T08:47:42;15.13;;;7.68;;
49217;SDS011;35045;51.194;7.268;2023-03-20T08:50:08;14.00;;;7.60;;
49217;SDS011;35045;51.194;7.268;2023-03-20T08:52:35;16.95;;;7.72;;
49217;SDS011;35045;51.194;7.268;2023-03-20T08:55:02;14.98;;;8.48;;
49217;SDS011;35045;51.194;7.268;2023-03-20T08:57:28;16.58;;;7.88;;
49217;SDS011;35045;51.194;7.268;2023-03-20T08:59:54;12.50;;;8.23;;
49217;SDS011;35045;51.194;7.268;2023-03-20T09:02:20;16.00;;;8.60;;
49217;SDS011;35045;51.194;7.268;2023-03-20T09:04:46;15.07;;;8.88;;
49217;SDS011;35045;51.194;7.268;2023-03-20T09:07:12;18.40;;;8.60;;
49217;SDS011;35045;51.194;7.268;2023-03-20T09:09:40;16.23;;;8.88;;
49217;SDS011;35045;51.194;7.268;2023-03-20T09:12:06;13.60;;;8.30;;
49217;SDS011;35045;51.194;7.268;2023-03-20T09:14:32;15.27;;;8.88;;
49217;SDS011;35045;51.194;7.268;2023-03-20T09:16:59;14.05;;;8.82;;
49217;SDS011;35045;51.194;7.268;2023-03-20T09:19:25;13.63;;;8.48;;
49217;SDS011;35045;51.194;7.268;2023-03-20T09:21:51;14.27;;;8.93;;
49217;SDS011;35045;51.194;7.268;2023-03-20T09:24:17;15.55;;;8.93;;
49217;SDS011;35045;51.194;7.268;2023-03-20T09:26:43;15.95;;;9.00;;
49217;SDS011;35045;51.194;7.268;2023-03-20T09:29:10;18.83;;;9.68;;
49217;SDS011;35045;51.194;7.268;2023-03-20T09:31:36;16.85;;;10.18;;
49217;SDS011;35045;51.194;7.268;2023-03-20T09:34:02;15.20;;;9.48;;
49217;SDS011;35045;51.194;7.268;2023-03-20T09:36:28;15.23;;;9.98;;
49217;SDS011;35045;51.194;7.268;2023-03-20T09:38:55;21.05;;;10.52;;
49217;SDS011;35045;51.194;7.268;2023-03-20T09:41:22;14.63;;;9.20;;
49217;SDS011;35045;51.194;7.268;2023-03-20T09:44:06;14.90;;;10.02;;
49217;SDS011;35045;51.194;7.268;2023-03-20T09:49:56;19.58;;;10.38;;
49217;SDS011;35045;51.194;7.268;2023-03-20T09:52:31;16.95;;;10.40;;
49217;SDS011;35045;51.194;7.268;2023-03-20T09:55:21;21.45;;;10.20;;
49217;SDS011;35045;51.194;7.268;2023-03-20T09:57:53;16.48;;;9.55;;
49217;SDS011;35045;51.194;7.268;2023-03-20T10:00:23;18.70;;;9.45;;
49217;SDS011;35045;51.194;7.268;2023-03-20T10:02:55;18.45;;;9.52;;
49217;SDS011;35045;51.194;7.268;2023-03-20T10:05:26;17.85;;;9.63;;
49217;SDS011;35045;51.194;7.268;2023-03-20T10:07:53;14.25;;;9.20;;
49217;SDS011;35045;51.194;7.268;2023-03-20T10:10:30;14.68;;;8.55;;
49217;SDS011;35045;51.194;7.268;2023-03-20T10:15:41;13.68;;;8.48;;
49217;SDS011;35045;51.194;7.268;2023-03-20T10:18:24;14.93;;;8.68;;
49217;SDS011;35045;51.194;7.268;2023-03-20T10:21:05;15.98;;;8.77;;
49217;SDS011;35045;51.194;7.268;2023-03-20T10:24:04;14.98;;;7.93;;
49217;SDS011;35045;51.194;7.268;2023-03-20T10:26:37;15.40;;;7.72;;
49217;SDS011;35045;51.194;7.268;2023-03-20T10:29:13;11.30;;;7.15;;
49217;SDS011;35045;51.194;7.268;2023-03-20T10:37:24;14.88;;;8.60;;
49217;SDS011;35045;51.194;7.268;2023-03-20T10:40:07;14.98;;;8.50;;
49217;SDS011;35045;51.194;7.268;2023-03-20T10:42:56;12.05;;;7.10;;
49217;SDS011;35045;51.194;7.268;2023-03-20T10:48:02;13.43;;;7.38;;
49217;SDS011;35045;51.194;7.268;2023-03-20T10:50:34;14.40;;;7.82;;
49217;SDS011;35045;51.194;7.268;2023-03-20T10:53:18;11.80;;;7.45;;
49217;SDS011;35045;51.194;7.268;2023-03-20T10:58:18;13.65;;;6.15;;
49217;SDS011;35045;51.194;7.268;2023-03-20T11:00:47;13.05;;;6.38;;
49217;SDS011;35045;51.194;7.268;2023-03-20T11:03:16;10.27;;;5.57;;
49217;SDS011;35045;51.194;7.268;2023-03-20T11:05:59;12.02;;;5.68;;
49217;SDS011;35045;51.194;7.268;2023-03-20T11:08:35;10.35;;;5.68;;
49217;SDS011;35045;51.194;7.268;2023-03-20T11:11:05;11.40;;;5.50;;
49217;SDS011;35045;51.194;7.268;2023-03-20T11:13:33;10.00;;;5.25;;
49217;SDS011;35045;51.194;7.268;2023-03-20T11:16:08;11.52;;;5.07;;
49217;SDS011;35045;51.194;7.268;2023-03-20T11:18:36;10.40;;;4.93;;
49217;SDS011;35045;51.194;7.268;2023-03-20T11:21:02;9.82;;;4.88;;
49217;SDS011;35045;51.194;7.268;2023-03-20T11:23:31;8.43;;;4.30;;
49217;SDS011;35045;51.194;7.268;2023-03-20T11:25:59;8.75;;;4.35;;
49217;SDS011;35045;51.194;7.268;2023-03-20T11:33:42;13.00;;;6.07;;
49217;SDS011;35045;51.194;7.268;2023-03-20T11:36:11;12.48;;;5.38;;
49217;SDS011;35045;51.194;7.268;2023-03-20T11:39:00;9.07;;;5.00;;
49217;SDS011;35045;51.194;7.268;2023-03-20T11:41:31;12.98;;;5.43;;
49217;SDS011;35045;51.194;7.268;2023-03-20T11:43:58;10.65;;;5.07;;
49217;SDS011;35045;51.194;7.268;2023-03-20T11:46:24;13.45;;;5.13;;
49217;SDS011;35045;51.194;7.268;2023-03-20T11:49:04;10.88;;;4.55;;
49217;SDS011;35045;51.194;7.268;2023-03-20T11:51:49;8.90;;;4.45;;
49217;SDS011;35045;51.194;7.268;2023-03-20T11:54:20;7.32;;;3.95;;
49217;SDS011;35045;51.194;7.268;2023-03-20T11:56:56;10.25;;;4.63;;
49217;SDS011;35045;51.194;7.268;2023-03-20T11:59:31;7.85;;;4.05;;
49217;SDS011;35045;51.194;7.268;2023-03-20T12:02:00;11.00;;;4.40;;
49217;SDS011;35045;51.194;7.268;2023-03-20T12:04:32;8.68;;;3.85;;
49217;SDS011;35045;51.194;7.268;2023-03-20T12:07:11;9.43;;;4.57;;
49217;SDS011;35045;51.194;7.268;2023-03-20T12:09:47;7.13;;;3.75;;
49217;SDS011;35045;51.194;7.268;2023-03-20T12:18:03;9.90;;;3.85;;
49217;SDS011;35045;51.194;7.268;2023-03-20T12:26:32;9.95;;;3.85;;
49217;SDS011;35045;51.194;7.268;2023-03-20T12:31:43;8.07;;;4.07;;
49217;SDS011;35045;51.194;7.268;2023-03-20T12:34:22;10.77;;;5.03;;
49217;SDS011;35045;51.194;7.268;2023-03-20T12:36:52;9.30;;;4.40;;
49217;SDS011;35045;51.194;7.268;2023-03-20T12:39:22;13.52;;;5.13;;
49217;SDS011;35045;51.194;7.268;2023-03-20T12:44:47;10.77;;;4.88;;
49217;SDS011;35045;51.194;7.268;2023-03-20T12:58:50;9.57;;;4.78;;
49217;SDS011;35045;51.194;7.268;2023-03-20T13:01:31;10.75;;;4.93;;
49217;SDS011;35045;51.194;7.268;2023-03-20T13:06:55;10.43;;;5.38;;
49217;SDS011;35045;51.194;7.268;2023-03-20T13:09:37;12.20;;;5.63;;
49217;SDS011;35045;51.194;7.268;2023-03-20T13:20:56;9.65;;;4.75;;
49217;SDS011;35045;51.194;7.268;2023-03-20T13:26:11;11.00;;;5.25;;
49217;SDS011;35045;51.194;7.268;2023-03-20T13:29:12;15.68;;;7.15;;
49217;SDS011;35045;51.194;7.268;2023-03-20T13:34:27;10.02;;;4.97;;
49217;SDS011;35045;51.194;7.268;2023-03-20T13:37:20;10.20;;;5.43;;
49217;SDS011;35045;51.194;7.268;2023-03-20T13:40:10;10.48;;;5.22;;
49217;SDS011;35045;51.194;7.268;2023-03-20T13:42:46;9.45;;;5.05;;
49217;SDS011;35045;51.194;7.268;2023-03-20T13:48:18;13.10;;;4.97;;
49217;SDS011;35045;51.194;7.268;2023-03-20T13:58:36;8.13;;;4.15;;
49217;SDS011;35045;51.194;7.268;2023-03-20T14:01:26;11.18;;;4.10;;
49217;SDS011;35045;51.194;7.268;2023-03-20T14:04:00;7.97;;;3.40;;
49217;SDS011;35045;51.194;7.268;2023-03-20T14:08:56;12.43;;;3.20;;
49217;SDS011;35045;51.194;7.268;2023-03-20T14:16:25;8.43;;;3.22;;
49217;SDS011;35045;51.194;7.268;2023-03-20T14:21:44;9.23;;;3.50;;
49217;SDS011;35045;51.194;7.268;2023-03-20T14:24:16;9.32;;;3.00;;
49217;SDS011;35045;51.194;7.268;2023-03-20T14:27:02;7.68;;;2.80;;
49217;SDS011;35045;51.194;7.268;2023-03-20T14:29:31;7.75;;;2.88;;
49217;SDS011;35045;51.194;7.268;2023-03-20T14:34:51;7.25;;;2.70;;
49217;SDS011;35045;51.194;7.268;2023-03-20T14:38:00;8.27;;;2.65;;
49217;SDS011;35045;51.194;7.268;2023-03-20T14:40:33;7.43;;;3.10;;
49217;SDS011;35045;51.194;7.268;2023-03-20T14:43:25;6.13;;;2.55;;
49217;SDS011;35045;51.194;7.268;2023-03-20T14:46:17;7.22;;;2.67;;
49217;SDS011;35045;51.194;7.268;2023-03-20T14:49:14;6.18;;;2.22;;
49217;SDS011;35045;51.194;7.268;2023-03-20T14:51:49;7.50;;;2.58;;
49217;SDS011;35045;51.194;7.268;2023-03-20T14:54:23;8.13;;;2.88;;
49217;SDS011;35045;51.194;7.268;2023-03-20T14:56:51;7.55;;;3.30;;
49217;SDS011;35045;51.194;7.268;2023-03-20T14:59:21;7.70;;;2.90;;
49217;SDS011;35045;51.194;7.268;2023-03-20T15:09:28;10.02;;;3.03;;
49217;SDS011;35045;51.194;7.268;2023-03-20T15:11:57;7.13;;;2.53;;
49217;SDS011;35045;51.194;7.268;2023-03-20T15:14:33;9.25;;;2.97;;
49217;SDS011;35045;51.194;7.268;2023-03-20T15:17:14;9.10;;;3.33;;
49217;SDS011;35045;51.194;7.268;2023-03-20T15:19:42;8.90;;;3.22;;
49217;SDS011;35045;51.194;7.268;2023-03-20T15:22:13;8.43;;;2.67;;
49217;SDS011;35045;51.194;7.268;2023-03-20T15:24:49;7.95;;;3.25;;
49217;SDS011;35045;51.194;7.268;2023-03-20T15:27:17;8.02;;;2.90;;
49217;SDS011;35045;51.194;7.268;2023-03-20T15:29:45;9.35;;;3.60;;
49217;SDS011;35045;51.194;7.268;2023-03-20T15:32:16;8.80;;;3.67;;
49217;SDS011;35045;51.194;7.268;2023-03-20T15:34:43;10.43;;;4.63;;
49217;SDS011;35045;51.194;7.268;2023-03-20T15:37:15;11.27;;;3.83;;
49217;SDS011;35045;51.194;7.268;2023-03-20T15:39:49;9.57;;;3.40;;
49217;SDS011;35045;51.194;7.268;2023-03-20T15:42:19;9.57;;;3.30;;
49217;SDS011;35045;51.194;7.268;2023-03-20T15:44:48;11.55;;;3.95;;
49217;SDS011;35045;51.194;7.268;2023-03-20T15:47:17;9.07;;;3.20;;
49217;SDS011;35045;51.194;7.268;2023-03-20T15:49:49;9.85;;;3.75;;
49217;SDS011;35045;51.194;7.268;2023-03-20T15:52:26;11.57;;;3.78;;
49217;SDS011;35045;51.194;7.268;2023-03-20T15:54:56;9.80;;;3.50;;
49217;SDS011;35045;51.194;7.268;2023-03-20T15:57:25;8.63;;;3.20;;
49217;SDS011;35045;51.194;7.268;2023-03-20T15:59:59;12.43;;;3.88;;
49217;SDS011;35045;51.194;7.268;2023-03-20T16:02:28;10.60;;;3.67;;
49217;SDS011;35045;51.194;7.268;2023-03-20T16:04:55;8.98;;;3.67;;
49217;SDS011;35045;51.194;7.268;2023-03-20T16:07:25;11.43;;;3.83;;
49217;SDS011;35045;51.194;7.268;2023-03-20T16:09:53;9.30;;;3.50;;
49217;SDS011;35045;51.194;7.268;2023-03-20T16:12:19;8.98;;;3.53;;
49217;SDS011;35045;51.194;7.268;2023-03-20T16:14:46;9.07;;;3.45;;
49217;SDS011;35045;51.194;7.268;2023-03-20T16:17:14;9.82;;;3.45;;
49217;SDS011;35045;51.194;7.268;2023-03-20T16:19:42;10.63;;;3.38;;
49217;SDS011;35045;51.194;7.268;2023-03-20T16:24:53;9.85;;;3.28;;
49217;SDS011;35045;51.194;7.268;2023-03-20T16:27:24;12.15;;;3.80;;
49217;SDS011;35045;51.194;7.268;2023-03-20T16:29:56;10.10;;;3.85;;
49217;SDS011;35045;51.194;7.268;2023-03-20T16:32:25;10.88;;;4.28;;
49217;SDS011;35045;51.194;7.268;2023-03-20T16:34:58;13.82;;;3.75;;
49217;SDS011;35045;51.194;7.268;2023-03-20T16:37:36;10.75;;;4.20;;
49217;SDS011;35045;51.194;7.268;2023-03-20T16:40:15;11.13;;;4.22;;
49217;SDS011;35045;51.194;7.268;2023-03-20T16:43:06;11.15;;;4.22;;
49217;SDS011;35045;51.194;7.268;2023-03-20T16:45:45;13.98;;;3.97;;
49217;SDS011;35045;51.194;7.268;2023-03-20T16:50:54;8.02;;;4.03;;
49217;SDS011;35045;51.194;7.268;2023-03-20T16:53:26;7.80;;;3.20;;
49217;SDS011;35045;51.194;7.268;2023-03-20T16:55:55;8.73;;;4.15;;
49217;SDS011;35045;51.194;7.268;2023-03-20T16:58:26;9.15;;;3.47;;
49217;SDS011;35045;51.194;7.268;2023-03-20T17:01:00;7.90;;;3.90;;
49217;SDS011;35045;51.194;7.268;2023-03-20T17:03:39;9.07;;;3.50;;
49217;SDS011;35045;51.194;7.268;2023-03-20T17:08:49;9.63;;;3.22;;
49217;SDS011;35045;51.194;7.268;2023-03-20T17:11:21;7.88;;;3.08;;
49217;SDS011;35045;51.194;7.268;2023-03-20T17:13:55;8.45;;;3.15;;
49217;SDS011;35045;51.194;7.268;2023-03-20T17:16:21;9.18;;;3.30;;